sensor_id;sensor_type;location;lat;lon;timestamp;P1;durP1;ratioP1;P2;durP2;ratioP2
9413;SDS011;4746;35.664;139.738;2022-08-05T00:01:16;3.92;;;2.45;;
9413;SDS011;4746;35.664;139.738;2022-08-05T00:03:47;2.38;;;2.13;;
9413;SDS011;4746;35.664;139.738;2022-08-05T00:06:16;4.82;;;2.47;;
9413;SDS011;4746;35.664;139.738;2022-08-05T00:08:44;5.60;;;2.50;;
9413;SDS011;4746;35.664;139.738;2022-08-05T00:11:12;5.45;;;2.78;;
9413;SDS011;4746;35.664;139.738;2022-08-05T00:13:42;4.05;;;2.13;;
9413;SDS011;4746;35.664;139.738;2022-08-05T00:16:11;4.20;;;2.03;;
9413;SDS011;4746;35.664;139.738;2022-08-05T00:18:41;2.90;;;2.58;;
9413;SDS011;4746;35.664;139.738;2022-08-05T00:21:12;6.63;;;3.00;;
9413;SDS011;4746;35.664;139.738;2022-08-05T00:23:43;4.35;;;2.47;;
9413;SDS011;4746;35.664;139.738;2022-08-05T00:26:12;4.82;;;2.83;;
9413;SDS011;4746;35.664;139.738;2022-08-05T00:28:41;4.57;;;2.40;;
9413;SDS011;4746;35.664;139.738;2022-08-05T00:31:09;2.38;;;2.15;;
9413;SDS011;4746;35.664;139.738;2022-08-05T00:33:36;4.80;;;2.28;;
9413;SDS011;4746;35.664;139.738;2022-08-05T00:36:04;2.42;;;2.13;;
9413;SDS011;4746;35.664;139.738;2022-08-05T00:38:32;3.88;;;2.22;;
9413;SDS011;4746;35.664;139.738;2022-08-05T00:41:00;4.10;;;2.83;;
9413;SDS011;4746;35.664;139.738;2022-08-05T00:43:29;7.90;;;2.50;;
9413;SDS011;4746;35.664;139.738;2022-08-05T00:45:57;5.28;;;2.53;;
9413;SDS011;4746;35.664;139.738;2022-08-05T00:48:25;3.17;;;2.20;;
9413;SDS011;4746;35.664;139.738;2022-08-05T00:50:52;3.58;;;2.38;;
9413;SDS011;4746;35.664;139.738;2022-08-05T00:53:20;2.70;;;2.50;;
9413;SDS011;4746;35.664;139.738;2022-08-05T00:55:49;2.75;;;2.30;;
9413;SDS011;4746;35.664;139.738;2022-08-05T00:58:16;2.28;;;2.10;;
9413;SDS011;4746;35.664;139.738;2022-08-05T01:00:45;5.15;;;2.80;;
9413;SDS011;4746;35.664;139.738;2022-08-05T01:03:12;2.65;;;2.45;;
9413;SDS011;4746;35.664;139.738;2022-08-05T01:05:40;2.28;;;2.08;;
9413;SDS011;4746;35.664;139.738;2022-08-05T01:08:07;3.13;;;2.40;;
9413;SDS011;4746;35.664;139.738;2022-08-05T01:10:40;2.88;;;1.85;;
9413;SDS011;4746;35.664;139.738;2022-08-05T01:19:38;3.08;;;1.98;;
9413;SDS011;4746;35.664;139.738;2022-08-05T01:31:22;3.92;;;2.38;;
9413;SDS011;4746;35.664;139.738;2022-08-05T01:34:11;4.22;;;2.45;;
9413;SDS011;4746;35.664;139.738;2022-08-05T01:37:01;6.53;;;2.72;;
9413;SDS011;4746;35.664;139.738;2022-08-05T01:39:49;2.88;;;2.50;;
9413;SDS011;4746;35.664;139.738;2022-08-05T01:42:19;4.13;;;2.50;;
9413;SDS011;4746;35.664;139.738;2022-08-05T01:44:53;3.20;;;2.45;;
9413;SDS011;4746;35.664;139.738;2022-08-05T01:47:25;2.72;;;2.25;;
9413;SDS011;4746;35.664;139.738;2022-08-05T01:49:59;3.03;;;2.70;;
9413;SDS011;4746;35.664;139.738;2022-08-05T01:52:32;6.60;;;2.75;;
9413;SDS011;4746;35.664;139.738;2022-08-05T01:55:07;4.53;;;2.72;;
9413;SDS011;4746;35.664;139.738;2022-08-05T01:57:40;3.10;;;2.42;;
9413;SDS011;4746;35.664;139.738;2022-08-05T02:00:13;4.18;;;2.72;;
9413;SDS011;4746;35.664;139.738;2022-08-05T02:02:48;3.42;;;2.70;;
9413;SDS011;4746;35.664;139.738;2022-08-05T02:05:30;6.63;;;4.07;;
9413;SDS011;4746;35.664;139.738;2022-08-05T02:08:01;5.22;;;2.92;;
9413;SDS011;4746;35.664;139.738;2022-08-05T02:10:32;3.75;;;2.50;;
9413;SDS011;4746;35.664;139.738;2022-08-05T02:13:11;2.60;;;2.40;;
9413;SDS011;4746;35.664;139.738;2022-08-05T02:15:59;2.47;;;2.28;;
9413;SDS011;4746;35.664;139.738;2022-08-05T02:19:00;4.55;;;2.58;;
9413;SDS011;4746;35.664;139.738;2022-08-05T02:21:43;3.22;;;2.70;;
9413;SDS011;4746;35.664;139.738;2022-08-05T02:24:26;3.83;;;2.38;;
9413;SDS011;4746;35.664;139.738;2022-08-05T02:27:02;4.50;;;2.50;;
9413;SDS011;4746;35.664;139.738;2022-08-05T02:29:35;3.88;;;2.67;;
9413;SDS011;4746;35.664;139.738;2022-08-05T02:32:07;3.45;;;3.15;;
9413;SDS011;4746;35.664;139.738;2022-08-05T02:34:36;4.35;;;2.20;;
9413;SDS011;4746;35.664;139.738;2022-08-05T02:37:07;2.75;;;2.50;;
9413;SDS011;4746;35.664;139.738;2022-08-05T02:39:37;3.63;;;2.30;;
9413;SDS011;4746;35.664;139.738;2022-08-05T02:42:07;6.05;;;3.38;;
9413;SDS011;4746;35.664;139.738;2022-08-05T02:44:36;5.03;;;2.67;;
9413;SDS011;4746;35.664;139.738;2022-08-05T02:47:07;5.85;;;2.78;;
9413;SDS011;4746;35.664;139.738;2022-08-05T02:49:39;4.45;;;2.03;;
9413;SDS011;4746;35.664;139.738;2022-08-05T02:52:16;7.10;;;3.42;;
9413;SDS011;4746;35.664;139.738;2022-08-05T02:54:45;5.65;;;2.40;;
9413;SDS011;4746;35.664;139.738;2022-08-05T02:57:16;4.28;;;2.58;;
9413;SDS011;4746;35.664;139.738;2022-08-05T02:59:47;3.75;;;2.60;;
9413;SDS011;4746;35.664;139.738;2022-08-05T03:02:18;2.78;;;2.38;;
9413;SDS011;4746;35.664;139.738;2022-08-05T03:04:54;2.90;;;2.58;;
9413;SDS011;4746;35.664;139.738;2022-08-05T03:07:24;3.08;;;2.35;;
9413;SDS011;4746;35.664;139.738;2022-08-05T03:09:53;2.88;;;2.40;;
9413;SDS011;4746;35.664;139.738;2022-08-05T03:12:28;3.83;;;2.53;;
9413;SDS011;4746;35.664;139.738;2022-08-05T03:14:57;5.53;;;2.70;;
9413;SDS011;4746;35.664;139.738;2022-08-05T03:17:25;4.30;;;3.00;;
9413;SDS011;4746;35.664;139.738;2022-08-05T03:19:54;2.80;;;2.60;;
9413;SDS011;4746;35.664;139.738;2022-08-05T03:22:21;3.33;;;2.92;;
9413;SDS011;4746;35.664;139.738;2022-08-05T03:24:49;2.75;;;2.50;;
9413;SDS011;4746;35.664;139.738;2022-08-05T03:27:18;3.72;;;2.53;;
9413;SDS011;4746;35.664;139.738;2022-08-05T03:29:47;3.10;;;2.90;;
9413;SDS011;4746;35.664;139.738;2022-08-05T03:32:15;2.17;;;1.98;;
9413;SDS011;4746;35.664;139.738;2022-08-05T03:34:44;3.08;;;2.28;;
9413;SDS011;4746;35.664;139.738;2022-08-05T03:37:12;3.28;;;2.67;;
9413;SDS011;4746;35.664;139.738;2022-08-05T03:39:50;5.45;;;2.97;;
9413;SDS011;4746;35.664;139.738;2022-08-05T03:42:22;4.03;;;2.70;;
9413;SDS011;4746;35.664;139.738;2022-08-05T03:44:50;4.53;;;2.63;;
9413;SDS011;4746;35.664;139.738;2022-08-05T03:47:17;4.18;;;2.75;;
9413;SDS011;4746;35.664;139.738;2022-08-05T03:49:45;3.50;;;2.35;;
9413;SDS011;4746;35.664;139.738;2022-08-05T03:52:16;2.85;;;2.38;;
9413;SDS011;4746;35.664;139.738;2022-08-05T03:54:54;2.63;;;2.35;;
9413;SDS011;4746;35.664;139.738;2022-08-05T03:57:35;3.28;;;1.73;;
9413;SDS011;4746;35.664;139.738;2022-08-05T04:00:09;4.05;;;2.28;;
9413;SDS011;4746;35.664;139.738;2022-08-05T04:02:41;3.25;;;2.28;;
9413;SDS011;4746;35.664;139.738;2022-08-05T04:05:13;2.38;;;1.80;;
9413;SDS011;4746;35.664;139.738;2022-08-05T04:07:42;2.10;;;1.90;;
9413;SDS011;4746;35.664;139.738;2022-08-05T04:10:11;3.60;;;2.40;;
9413;SDS011;4746;35.664;139.738;2022-08-05T04:12:38;3.08;;;2.03;;
9413;SDS011;4746;35.664;139.738;2022-08-05T04:15:06;3.53;;;1.90;;
9413;SDS011;4746;35.664;139.738;2022-08-05T04:17:36;2.85;;;2.20;;
9413;SDS011;4746;35.664;139.738;2022-08-05T04:20:04;2.53;;;2.17;;
9413;SDS011;4746;35.664;139.738;2022-08-05T04:22:32;3.63;;;2.35;;
9413;SDS011;4746;35.664;139.738;2022-08-05T04:25:00;3.67;;;2.08;;
9413;SDS011;4746;35.664;139.738;2022-08-05T04:27:27;2.60;;;2.28;;
9413;SDS011;4746;35.664;139.738;2022-08-05T04:29:56;4.20;;;2.10;;
9413;SDS011;4746;35.664;139.738;2022-08-05T04:32:23;3.47;;;1.95;;
9413;SDS011;4746;35.664;139.738;2022-08-05T04:34:50;2.63;;;2.25;;
9413;SDS011;4746;35.664;139.738;2022-08-05T04:37:18;4.10;;;2.08;;
9413;SDS011;4746;35.664;139.738;2022-08-05T04:39:45;2.65;;;2.35;;
9413;SDS011;4746;35.664;139.738;2022-08-05T04:42:14;4.90;;;2.50;;
9413;SDS011;4746;35.664;139.738;2022-08-05T04:44:41;3.63;;;2.28;;
9413;SDS011;4746;35.664;139.738;2022-08-05T04:47:09;2.95;;;2.65;;
9413;SDS011;4746;35.664;139.738;2022-08-05T04:49:39;1.80;;;1.58;;
9413;SDS011;4746;35.664;139.738;2022-08-05T04:52:07;2.88;;;1.90;;
9413;SDS011;4746;35.664;139.738;2022-08-05T04:54:34;4.53;;;2.20;;
9413;SDS011;4746;35.664;139.738;2022-08-05T04:57:02;3.83;;;2.15;;
9413;SDS011;4746;35.664;139.738;2022-08-05T04:59:30;2.05;;;1.85;;
9413;SDS011;4746;35.664;139.738;2022-08-05T05:01:57;2.47;;;2.05;;
9413;SDS011;4746;35.664;139.738;2022-08-05T05:04:25;2.92;;;2.28;;
9413;SDS011;4746;35.664;139.738;2022-08-05T05:06:52;2.78;;;2.22;;
9413;SDS011;4746;35.664;139.738;2022-08-05T05:09:20;2.92;;;1.92;;
9413;SDS011;4746;35.664;139.738;2022-08-05T05:11:47;4.68;;;2.40;;
9413;SDS011;4746;35.664;139.738;2022-08-05T05:14:15;3.03;;;2.35;;
9413;SDS011;4746;35.664;139.738;2022-08-05T05:16:42;3.75;;;1.95;;
9413;SDS011;4746;35.664;139.738;2022-08-05T05:19:10;2.50;;;2.08;;
9413;SDS011;4746;35.664;139.738;2022-08-05T05:21:37;3.08;;;1.83;;
9413;SDS011;4746;35.664;139.738;2022-08-05T05:24:05;4.60;;;2.00;;
9413;SDS011;4746;35.664;139.738;2022-08-05T05:26:33;3.85;;;2.10;;
9413;SDS011;4746;35.664;139.738;2022-08-05T05:29:00;4.15;;;2.50;;
9413;SDS011;4746;35.664;139.738;2022-08-05T05:31:28;4.35;;;2.20;;
9413;SDS011;4746;35.664;139.738;2022-08-05T05:33:55;3.60;;;2.40;;
9413;SDS011;4746;35.664;139.738;2022-08-05T05:36:24;3.47;;;2.60;;
9413;SDS011;4746;35.664;139.738;2022-08-05T05:38:52;4.43;;;2.25;;
9413;SDS011;4746;35.664;139.738;2022-08-05T05:41:19;4.30;;;2.65;;
9413;SDS011;4746;35.664;139.738;2022-08-05T05:43:47;5.22;;;2.97;;
9413;SDS011;4746;35.664;139.738;2022-08-05T05:46:14;4.78;;;2.50;;
9413;SDS011;4746;35.664;139.738;2022-08-05T05:48:42;2.00;;;1.77;;
9413;SDS011;4746;35.664;139.738;2022-08-05T05:51:16;2.40;;;1.90;;
9413;SDS011;4746;35.664;139.738;2022-08-05T05:53:48;1.92;;;1.83;;
9413;SDS011;4746;35.664;139.738;2022-08-05T05:56:17;1.80;;;1.70;;
9413;SDS011;4746;35.664;139.738;2022-08-05T05:58:45;2.38;;;1.60;;
9413;SDS011;4746;35.664;139.738;2022-08-05T06:01:13;2.58;;;2.30;;
9413;SDS011;4746;35.664;139.738;2022-08-05T06:03:43;3.95;;;1.80;;
9413;SDS011;4746;35.664;139.738;2022-08-05T06:06:11;3.45;;;2.10;;
9413;SDS011;4746;35.664;139.738;2022-08-05T06:08:38;2.53;;;1.63;;
9413;SDS011;4746;35.664;139.738;2022-08-05T06:11:06;2.38;;;1.98;;
9413;SDS011;4746;35.664;139.738;2022-08-05T06:13:34;4.00;;;1.88;;
9413;SDS011;4746;35.664;139.738;2022-08-05T06:16:01;2.58;;;1.80;;
9413;SDS011;4746;35.664;139.738;2022-08-05T06:18:29;3.20;;;1.95;;
9413;SDS011;4746;35.664;139.738;2022-08-05T06:20:57;2.90;;;1.75;;
9413;SDS011;4746;35.664;139.738;2022-08-05T06:23:25;2.53;;;1.80;;
9413;SDS011;4746;35.664;139.738;2022-08-05T06:25:52;4.38;;;1.70;;
9413;SDS011;4746;35.664;139.738;2022-08-05T06:28:20;1.73;;;1.30;;
9413;SDS011;4746;35.664;139.738;2022-08-05T06:30:48;5.28;;;2.10;;
9413;SDS011;4746;35.664;139.738;2022-08-05T06:33:16;1.92;;;1.60;;
9413;SDS011;4746;35.664;139.738;2022-08-05T06:35:43;2.17;;;1.55;;
9413;SDS011;4746;35.664;139.738;2022-08-05T06:38:11;2.40;;;1.58;;
9413;SDS011;4746;35.664;139.738;2022-08-05T06:40:39;1.58;;;1.45;;
9413;SDS011;4746;35.664;139.738;2022-08-05T06:43:08;3.33;;;1.88;;
9413;SDS011;4746;35.664;139.738;2022-08-05T06:45:36;3.50;;;1.50;;
9413;SDS011;4746;35.664;139.738;2022-08-05T06:48:04;3.80;;;1.67;;
9413;SDS011;4746;35.664;139.738;2022-08-05T06:50:31;4.35;;;1.80;;
9413;SDS011;4746;35.664;139.738;2022-08-05T06:52:59;4.50;;;1.60;;
9413;SDS011;4746;35.664;139.738;2022-08-05T06:55:26;3.00;;;1.35;;
9413;SDS011;4746;35.664;139.738;2022-08-05T06:57:54;4.88;;;2.15;;
9413;SDS011;4746;35.664;139.738;2022-08-05T07:00:21;3.63;;;1.60;;
9413;SDS011;4746;35.664;139.738;2022-08-05T07:02:49;3.78;;;2.20;;
9413;SDS011;4746;35.664;139.738;2022-08-05T07:05:17;3.05;;;1.80;;
9413;SDS011;4746;35.664;139.738;2022-08-05T07:07:44;2.83;;;1.42;;
9413;SDS011;4746;35.664;139.738;2022-08-05T07:10:13;2.08;;;1.50;;
9413;SDS011;4746;35.664;139.738;2022-08-05T07:12:40;1.48;;;1.38;;
9413;SDS011;4746;35.664;139.738;2022-08-05T07:15:26;2.83;;;1.67;;
9413;SDS011;4746;35.664;139.738;2022-08-05T07:18:11;3.20;;;1.83;;
9413;SDS011;4746;35.664;139.738;2022-08-05T07:20:42;3.60;;;1.63;;
9413;SDS011;4746;35.664;139.738;2022-08-05T07:23:09;2.13;;;1.40;;
9413;SDS011;4746;35.664;139.738;2022-08-05T07:25:37;3.65;;;1.80;;
9413;SDS011;4746;35.664;139.738;2022-08-05T07:28:04;2.30;;;1.55;;
9413;SDS011;4746;35.664;139.738;2022-08-05T07:30:33;3.22;;;1.83;;
9413;SDS011;4746;35.664;139.738;2022-08-05T07:33:03;3.45;;;1.73;;
9413;SDS011;4746;35.664;139.738;2022-08-05T07:35:34;2.65;;;1.75;;
9413;SDS011;4746;35.664;139.738;2022-08-05T07:38:05;4.22;;;2.00;;
9413;SDS011;4746;35.664;139.738;2022-08-05T07:40:33;2.38;;;2.00;;
9413;SDS011;4746;35.664;139.738;2022-08-05T07:43:00;3.65;;;1.83;;
9413;SDS011;4746;35.664;139.738;2022-08-05T07:45:28;3.05;;;1.98;;
9413;SDS011;4746;35.664;139.738;2022-08-05T07:47:56;2.05;;;1.65;;
9413;SDS011;4746;35.664;139.738;2022-08-05T07:50:24;2.20;;;2.00;;
9413;SDS011;4746;35.664;139.738;2022-08-05T07:52:52;3.67;;;2.15;;
9413;SDS011;4746;35.664;139.738;2022-08-05T07:55:19;4.40;;;1.90;;
9413;SDS011;4746;35.664;139.738;2022-08-05T07:57:47;2.63;;;1.80;;
9413;SDS011;4746;35.664;139.738;2022-08-05T08:00:15;2.63;;;1.70;;
9413;SDS011;4746;35.664;139.738;2022-08-05T08:02:43;3.20;;;1.70;;
9413;SDS011;4746;35.664;139.738;2022-08-05T08:05:11;1.83;;;1.70;;
9413;SDS011;4746;35.664;139.738;2022-08-05T08:07:38;3.33;;;1.70;;
9413;SDS011;4746;35.664;139.738;2022-08-05T08:10:06;3.65;;;1.98;;
9413;SDS011;4746;35.664;139.738;2022-08-05T08:12:34;3.25;;;2.17;;
9413;SDS011;4746;35.664;139.738;2022-08-05T08:15:02;4.35;;;2.50;;
9413;SDS011;4746;35.664;139.738;2022-08-05T08:17:31;2.08;;;1.88;;
9413;SDS011;4746;35.664;139.738;2022-08-05T08:19:59;2.60;;;2.00;;
9413;SDS011;4746;35.664;139.738;2022-08-05T08:22:30;2.88;;;2.30;;
9413;SDS011;4746;35.664;139.738;2022-08-05T08:24:59;5.25;;;2.22;;
9413;SDS011;4746;35.664;139.738;2022-08-05T08:27:26;4.40;;;1.77;;
9413;SDS011;4746;35.664;139.738;2022-08-05T08:29:54;4.35;;;2.03;;
9413;SDS011;4746;35.664;139.738;2022-08-05T08:32:22;1.85;;;1.60;;
9413;SDS011;4746;35.664;139.738;2022-08-05T08:34:51;3.13;;;1.85;;
9413;SDS011;4746;35.664;139.738;2022-08-05T08:37:18;3.33;;;1.85;;
9413;SDS011;4746;35.664;139.738;2022-08-05T08:39:46;2.90;;;1.77;;
9413;SDS011;4746;35.664;139.738;2022-08-05T08:42:13;3.55;;;1.83;;
9413;SDS011;4746;35.664;139.738;2022-08-05T08:44:42;3.95;;;1.92;;
9413;SDS011;4746;35.664;139.738;2022-08-05T08:47:11;2.47;;;2.00;;
9413;SDS011;4746;35.664;139.738;2022-08-05T08:49:43;2.45;;;1.65;;
9413;SDS011;4746;35.664;139.738;2022-08-05T08:52:17;2.80;;;2.08;;
9413;SDS011;4746;35.664;139.738;2022-08-05T08:54:51;3.75;;;1.90;;
9413;SDS011;4746;35.664;139.738;2022-08-05T08:57:19;2.25;;;1.77;;
9413;SDS011;4746;35.664;139.738;2022-08-05T08:59:49;3.17;;;1.98;;
9413;SDS011;4746;35.664;139.738;2022-08-05T09:02:20;3.88;;;2.38;;
9413;SDS011;4746;35.664;139.738;2022-08-05T09:04:50;3.20;;;2.85;;
9413;SDS011;4746;35.664;139.738;2022-08-05T09:07:17;4.43;;;2.88;;
9413;SDS011;4746;35.664;139.738;2022-08-05T09:09:45;3.17;;;2.50;;
9413;SDS011;4746;35.664;139.738;2022-08-05T09:12:13;3.78;;;2.25;;
9413;SDS011;4746;35.664;139.738;2022-08-05T09:14:41;3.83;;;2.05;;
9413;SDS011;4746;35.664;139.738;2022-08-05T09:17:11;3.13;;;1.67;;
9413;SDS011;4746;35.664;139.738;2022-08-05T09:19:39;2.00;;;1.77;;
9413;SDS011;4746;35.664;139.738;2022-08-05T09:22:06;4.22;;;2.10;;
9413;SDS011;4746;35.664;139.738;2022-08-05T09:24:37;2.95;;;1.77;;
9413;SDS011;4746;35.664;139.738;2022-08-05T09:27:08;2.80;;;1.85;;
9413;SDS011;4746;35.664;139.738;2022-08-05T09:29:50;3.10;;;1.95;;
9413;SDS011;4746;35.664;139.738;2022-08-05T09:32:19;2.92;;;2.28;;
9413;SDS011;4746;35.664;139.738;2022-08-05T09:35:10;4.35;;;2.45;;
9413;SDS011;4746;35.664;139.738;2022-08-05T09:37:49;2.28;;;1.90;;
9413;SDS011;4746;35.664;139.738;2022-08-05T09:43:08;2.30;;;1.92;;
9413;SDS011;4746;35.664;139.738;2022-08-05T09:45:56;2.38;;;2.17;;
9413;SDS011;4746;35.664;139.738;2022-08-05T09:48:28;2.55;;;2.35;;
9413;SDS011;4746;35.664;139.738;2022-08-05T09:50:59;3.88;;;2.88;;
9413;SDS011;4746;35.664;139.738;2022-08-05T09:56:24;3.83;;;2.25;;
9413;SDS011;4746;35.664;139.738;2022-08-05T09:59:03;4.47;;;2.22;;
9413;SDS011;4746;35.664;139.738;2022-08-05T10:01:40;4.25;;;2.35;;
9413;SDS011;4746;35.664;139.738;2022-08-05T10:04:11;3.05;;;2.17;;
9413;SDS011;4746;35.664;139.738;2022-08-05T10:06:41;3.13;;;2.55;;
9413;SDS011;4746;35.664;139.738;2022-08-05T10:09:21;5.82;;;2.75;;
9413;SDS011;4746;35.664;139.738;2022-08-05T10:11:49;4.10;;;2.60;;
9413;SDS011;4746;35.664;139.738;2022-08-05T10:14:21;4.85;;;2.30;;
9413;SDS011;4746;35.664;139.738;2022-08-05T10:17:13;3.92;;;2.65;;
9413;SDS011;4746;35.664;139.738;2022-08-05T10:19:41;4.45;;;2.90;;
9413;SDS011;4746;35.664;139.738;2022-08-05T10:22:09;2.72;;;2.08;;
9413;SDS011;4746;35.664;139.738;2022-08-05T10:24:37;3.03;;;2.30;;
9413;SDS011;4746;35.664;139.738;2022-08-05T10:27:05;3.53;;;2.42;;
9413;SDS011;4746;35.664;139.738;2022-08-05T10:29:34;10.23;;;2.90;;
9413;SDS011;4746;35.664;139.738;2022-08-05T10:32:02;4.47;;;2.70;;
9413;SDS011;4746;35.664;139.738;2022-08-05T10:34:30;6.13;;;2.90;;
9413;SDS011;4746;35.664;139.738;2022-08-05T10:36:57;6.78;;;5.15;;
9413;SDS011;4746;35.664;139.738;2022-08-05T10:39:29;9.07;;;3.40;;
9413;SDS011;4746;35.664;139.738;2022-08-05T10:42:03;3.50;;;3.08;;
9413;SDS011;4746;35.664;139.738;2022-08-05T10:44:43;4.07;;;3.08;;
9413;SDS011;4746;35.664;139.738;2022-08-05T10:47:13;3.05;;;2.65;;
9413;SDS011;4746;35.664;139.738;2022-08-05T10:52:37;2.63;;;2.40;;
9413;SDS011;4746;35.664;139.738;2022-08-05T10:55:12;3.35;;;3.05;;
9413;SDS011;4746;35.664;139.738;2022-08-05T10:57:41;5.65;;;2.78;;
9413;SDS011;4746;35.664;139.738;2022-08-05T11:00:14;5.45;;;2.83;;
9413;SDS011;4746;35.664;139.738;2022-08-05T11:05:35;6.65;;;3.50;;
9413;SDS011;4746;35.664;139.738;2022-08-05T11:08:05;4.38;;;3.00;;
9413;SDS011;4746;35.664;139.738;2022-08-05T11:10:36;5.28;;;3.20;;
9413;SDS011;4746;35.664;139.738;2022-08-05T11:13:06;2.72;;;2.42;;
9413;SDS011;4746;35.664;139.738;2022-08-05T11:15:35;3.17;;;2.85;;
9413;SDS011;4746;35.664;139.738;2022-08-05T11:18:06;3.65;;;2.70;;
9413;SDS011;4746;35.664;139.738;2022-08-05T11:20:58;4.10;;;2.78;;
9413;SDS011;4746;35.664;139.738;2022-08-05T11:23:34;2.35;;;2.10;;
9413;SDS011;4746;35.664;139.738;2022-08-05T11:28:47;4.22;;;2.38;;
9413;SDS011;4746;35.664;139.738;2022-08-05T11:31:18;3.20;;;2.60;;
9413;SDS011;4746;35.664;139.738;2022-08-05T11:33:58;3.00;;;2.70;;
9413;SDS011;4746;35.664;139.738;2022-08-05T11:36:39;4.05;;;2.50;;
9413;SDS011;4746;35.664;139.738;2022-08-05T11:39:09;3.97;;;2.75;;
9413;SDS011;4746;35.664;139.738;2022-08-05T11:41:39;4.47;;;2.65;;
9413;SDS011;4746;35.664;139.738;2022-08-05T11:44:15;3.55;;;2.70;;
9413;SDS011;4746;35.664;139.738;2022-08-05T11:49:19;6.20;;;3.35;;
9413;SDS011;4746;35.664;139.738;2022-08-05T11:51:49;3.53;;;2.90;;
9413;SDS011;4746;35.664;139.738;2022-08-05T11:54:24;5.13;;;2.58;;
9413;SDS011;4746;35.664;139.738;2022-08-05T11:56:58;3.63;;;2.85;;
9413;SDS011;4746;35.664;139.738;2022-08-05T11:59:29;2.40;;;2.22;;
9413;SDS011;4746;35.664;139.738;2022-08-05T12:02:02;2.75;;;2.55;;
9413;SDS011;4746;35.664;139.738;2022-08-05T12:04:37;2.95;;;2.60;;
9413;SDS011;4746;35.664;139.738;2022-08-05T12:07:08;5.38;;;2.90;;
9413;SDS011;4746;35.664;139.738;2022-08-05T12:09:39;3.05;;;2.60;;
9413;SDS011;4746;35.664;139.738;2022-08-05T12:12:12;3.80;;;2.63;;
9413;SDS011;4746;35.664;139.738;2022-08-05T12:14:49;4.93;;;2.97;;
9413;SDS011;4746;35.664;139.738;2022-08-05T12:17:17;5.00;;;3.60;;
9413;SDS011;4746;35.664;139.738;2022-08-05T12:22:25;3.17;;;2.83;;
9413;SDS011;4746;35.664;139.738;2022-08-05T12:24:54;5.45;;;3.13;;
9413;SDS011;4746;35.664;139.738;2022-08-05T12:27:25;3.67;;;3.00;;
9413;SDS011;4746;35.664;139.738;2022-08-05T12:30:04;5.28;;;3.50;;
9413;SDS011;4746;35.664;139.738;2022-08-05T12:32:34;3.45;;;2.70;;
9413;SDS011;4746;35.664;139.738;2022-08-05T12:35:11;3.85;;;3.35;;
9413;SDS011;4746;35.664;139.738;2022-08-05T12:37:40;7.45;;;3.20;;
9413;SDS011;4746;35.664;139.738;2022-08-05T12:40:10;4.85;;;2.40;;
9413;SDS011;4746;35.664;139.738;2022-08-05T12:42:38;4.72;;;2.60;;
9413;SDS011;4746;35.664;139.738;2022-08-05T12:45:07;3.67;;;2.33;;
9413;SDS011;4746;35.664;139.738;2022-08-05T12:47:36;3.05;;;2.38;;
9413;SDS011;4746;35.664;139.738;2022-08-05T12:50:15;3.13;;;2.38;;
9413;SDS011;4746;35.664;139.738;2022-08-05T12:52:53;3.90;;;2.33;;
9413;SDS011;4746;35.664;139.738;2022-08-05T12:55:25;2.80;;;2.60;;
9413;SDS011;4746;35.664;139.738;2022-08-05T12:57:56;2.60;;;2.10;;
9413;SDS011;4746;35.664;139.738;2022-08-05T13:00:26;2.60;;;2.40;;
9413;SDS011;4746;35.664;139.738;2022-08-05T13:02:55;2.58;;;2.20;;
9413;SDS011;4746;35.664;139.738;2022-08-05T13:05:23;2.40;;;2.20;;
9413;SDS011;4746;35.664;139.738;2022-08-05T13:07:55;2.40;;;2.20;;
9413;SDS011;4746;35.664;139.738;2022-08-05T13:10:23;2.83;;;2.38;;
9413;SDS011;4746;35.664;139.738;2022-08-05T13:12:51;4.47;;;2.85;;
9413;SDS011;4746;35.664;139.738;2022-08-05T13:15:26;3.55;;;2.30;;
9413;SDS011;4746;35.664;139.738;2022-08-05T13:17:58;2.60;;;2.45;;
9413;SDS011;4746;35.664;139.738;2022-08-05T13:20:32;2.83;;;2.50;;
9413;SDS011;4746;35.664;139.738;2022-08-05T13:23:01;3.80;;;2.63;;
9413;SDS011;4746;35.664;139.738;2022-08-05T13:25:28;4.55;;;2.22;;
9413;SDS011;4746;35.664;139.738;2022-08-05T13:27:56;4.35;;;2.17;;
9413;SDS011;4746;35.664;139.738;2022-08-05T13:30:23;4.07;;;2.22;;
9413;SDS011;4746;35.664;139.738;2022-08-05T13:32:51;5.25;;;2.30;;
9413;SDS011;4746;35.664;139.738;2022-08-05T13:35:19;3.95;;;2.45;;
9413;SDS011;4746;35.664;139.738;2022-08-05T13:37:48;2.38;;;2.05;;
9413;SDS011;4746;35.664;139.738;2022-08-05T13:40:16;2.50;;;2.03;;
9413;SDS011;4746;35.664;139.738;2022-08-05T13:42:44;3.60;;;2.90;;
9413;SDS011;4746;35.664;139.738;2022-08-05T13:45:11;3.22;;;2.00;;
9413;SDS011;4746;35.664;139.738;2022-08-05T13:47:39;6.15;;;2.60;;
9413;SDS011;4746;35.664;139.738;2022-08-05T13:50:06;2.75;;;2.10;;
9413;SDS011;4746;35.664;139.738;2022-08-05T13:52:34;3.05;;;2.15;;
9413;SDS011;4746;35.664;139.738;2022-08-05T13:55:02;3.85;;;2.20;;
9413;SDS011;4746;35.664;139.738;2022-08-05T13:57:30;2.97;;;2.20;;
9413;SDS011;4746;35.664;139.738;2022-08-05T13:59:58;4.30;;;2.95;;
9413;SDS011;4746;35.664;139.738;2022-08-05T14:02:25;2.58;;;2.30;;
9413;SDS011;4746;35.664;139.738;2022-08-05T14:04:53;3.92;;;2.30;;
9413;SDS011;4746;35.664;139.738;2022-08-05T14:07:39;3.42;;;2.15;;
9413;SDS011;4746;35.664;139.738;2022-08-05T14:10:13;3.60;;;1.77;;
9413;SDS011;4746;35.664;139.738;2022-08-05T14:12:43;3.30;;;2.00;;
9413;SDS011;4746;35.664;139.738;2022-08-05T14:15:11;4.70;;;2.25;;
9413;SDS011;4746;35.664;139.738;2022-08-05T14:17:39;4.50;;;2.20;;
9413;SDS011;4746;35.664;139.738;2022-08-05T14:20:07;3.15;;;2.25;;
9413;SDS011;4746;35.664;139.738;2022-08-05T14:22:35;4.32;;;2.30;;
9413;SDS011;4746;35.664;139.738;2022-08-05T14:25:03;3.10;;;2.10;;
9413;SDS011;4746;35.664;139.738;2022-08-05T14:27:31;2.75;;;1.80;;
9413;SDS011;4746;35.664;139.738;2022-08-05T14:29:59;5.38;;;2.50;;
9413;SDS011;4746;35.664;139.738;2022-08-05T14:32:26;5.05;;;2.15;;
9413;SDS011;4746;35.664;139.738;2022-08-05T14:34:55;3.65;;;2.03;;
9413;SDS011;4746;35.664;139.738;2022-08-05T14:37:23;2.80;;;1.75;;
9413;SDS011;4746;35.664;139.738;2022-08-05T14:39:51;2.55;;;2.00;;
9413;SDS011;4746;35.664;139.738;2022-08-05T14:42:18;3.72;;;2.13;;
9413;SDS011;4746;35.664;139.738;2022-08-05T14:44:46;4.50;;;1.90;;
9413;SDS011;4746;35.664;139.738;2022-08-05T14:47:14;3.17;;;2.00;;
9413;SDS011;4746;35.664;139.738;2022-08-05T14:49:42;3.05;;;1.90;;
9413;SDS011;4746;35.664;139.738;2022-08-05T14:52:10;3.15;;;1.77;;
9413;SDS011;4746;35.664;139.738;2022-08-05T14:54:38;3.80;;;2.05;;
9413;SDS011;4746;35.664;139.738;2022-08-05T14:57:05;3.80;;;1.90;;
9413;SDS011;4746;35.664;139.738;2022-08-05T14:59:33;4.70;;;2.13;;
9413;SDS011;4746;35.664;139.738;2022-08-05T15:02:00;3.33;;;2.08;;
9413;SDS011;4746;35.664;139.738;2022-08-05T15:04:29;5.05;;;1.92;;
9413;SDS011;4746;35.664;139.738;2022-08-05T15:06:57;4.60;;;2.05;;
9413;SDS011;4746;35.664;139.738;2022-08-05T15:09:25;3.50;;;2.47;;
9413;SDS011;4746;35.664;139.738;2022-08-05T15:11:52;5.20;;;2.22;;
9413;SDS011;4746;35.664;139.738;2022-08-05T15:14:22;5.65;;;2.75;;
9413;SDS011;4746;35.664;139.738;2022-08-05T15:16:49;3.00;;;1.80;;
9413;SDS011;4746;35.664;139.738;2022-08-05T15:19:17;4.28;;;1.92;;
9413;SDS011;4746;35.664;139.738;2022-08-05T15:21:44;4.53;;;2.17;;
9413;SDS011;4746;35.664;139.738;2022-08-05T15:24:13;4.28;;;2.20;;
9413;SDS011;4746;35.664;139.738;2022-08-05T15:26:40;3.70;;;2.20;;
9413;SDS011;4746;35.664;139.738;2022-08-05T15:29:08;4.95;;;2.10;;
9413;SDS011;4746;35.664;139.738;2022-08-05T15:31:36;3.80;;;2.47;;
9413;SDS011;4746;35.664;139.738;2022-08-05T15:34:03;3.55;;;1.95;;
9413;SDS011;4746;35.664;139.738;2022-08-05T15:36:31;3.22;;;1.98;;
9413;SDS011;4746;35.664;139.738;2022-08-05T15:38:58;2.72;;;2.10;;
9413;SDS011;4746;35.664;139.738;2022-08-05T15:41:26;4.05;;;2.10;;